Airport View

Enter AWOS ICAO identifier for current METAR.

ex. KFNL

KRFI 112205Z AUTO 00000KT 10SM CLR 12/M01 A3047 RMK AO2 T01201012

11 Dec 2019 22:07

Frequency: 119.375

Phone: 903-657-0384

Other Area AWOS: KGGG - KJSO - KTYR - KJXI

TAF KGGG 111730Z 1118/1218 09005KT P6SM SKC FM120000 12003KT P6SM FEW280 FM121600 14006KT P6SM SCT250